Time;durP1;ratioP1;P1;durP2;ratioP2;P2;SDS_P1;SDS_P2;PMS_P1;PMS_P2;Temp;Humidity;BMP_temperature;BMP_pressure;BME280_temperature;BME280_humidity;BME280_pressure;Samples;Min_cycle;Max_cycle;Signal;HPM_P1;HPM_P2
2023/08/15 00:01:48;;;;;;;6.20;5.47;;;20.60;83.40;;;;;;5934560;24;20236;-87
2023/08/15 00:04:16;;;;;;;6.07;5.47;;;20.60;83.50;;;;;;5953026;23;20672;-88
2023/08/15 00:06:48;;;;;;;5.90;5.20;;;20.60;83.40;;;;;;5984730;24;20499;-88
2023/08/15 00:09:34;;;;;;;6.32;5.43;;;20.60;83.40;;;;;;5985841;24;20178;-88
2023/08/15 00:12:10;;;;;;;6.68;5.65;;;20.60;83.40;;;;;;5908473;24;20164;-89
2023/08/15 00:14:42;;;;;;;7.05;5.22;;;20.60;83.40;;;;;;5931054;24;20177;-88
2023/08/15 00:17:14;;;;;;;6.00;5.40;;;20.60;83.40;;;;;;5930775;24;20206;-90
2023/08/15 00:19:44;;;;;;;5.80;5.20;;;20.60;83.40;;;;;;5887426;24;20164;-87
2023/08/15 00:22:17;;;;;;;7.05;5.30;;;20.60;83.40;;;;;;5902591;24;20353;-87
2023/08/15 00:24:49;;;;;;;6.13;5.18;;;20.50;83.40;;;;;;5882415;24;20157;-88
2023/08/15 00:27:15;;;;;;;6.18;5.03;;;20.50;83.40;;;;;;5864631;24;20211;-88
2023/08/15 00:29:45;;;;;;;6.50;5.45;;;20.60;83.50;;;;;;5877636;24;20154;-89
2023/08/15 00:32:16;;;;;;;6.95;5.15;;;20.50;83.50;;;;;;5848121;24;20167;-88
2023/08/15 00:34:42;;;;;;;6.22;5.45;;;20.50;83.50;;;;;;5873975;24;20163;-90
2023/08/15 00:37:14;;;;;;;5.80;5.15;;;20.50;83.50;;;;;;5853934;24;20223;-88
2023/08/15 00:39:43;;;;;;;6.60;4.95;;;20.50;83.50;;;;;;5851463;24;20170;-89
2023/08/15 00:42:13;;;;;;;5.90;5.10;;;20.50;83.50;;;;;;5828564;24;20200;-88
2023/08/15 00:44:43;;;;;;;6.90;5.60;;;20.50;83.60;;;;;;5851368;24;20186;-89
2023/08/15 00:47:29;;;;;;;6.15;5.55;;;20.50;83.70;;;;;;5885659;24;20197;-88
2023/08/15 00:50:01;;;;;;;5.85;5.22;;;20.50;83.60;;;;;;5891894;24;20624;-89
2023/08/15 00:52:28;;;;;;;5.40;4.90;;;20.50;83.60;;;;;;5938378;24;20161;-89
2023/08/15 00:55:09;;;;;;;6.13;5.50;;;20.50;83.60;;;;;;5939388;24;20160;-88
2023/08/15 00:57:41;;;;;;;5.93;5.32;;;20.50;83.60;;;;;;5941711;24;20239;-89
2023/08/15 01:00:19;;;;;;;6.03;5.38;;;20.50;83.70;;;;;;5941617;24;20159;-87
2023/08/15 01:02:53;;;;;;;5.70;5.07;;;20.50;83.70;;;;;;5963348;24;20191;-87
2023/08/15 01:05:35;;;;;;;6.03;5.43;;;20.50;83.80;;;;;;5943140;24;20519;-88
2023/08/15 01:08:05;;;;;;;7.07;5.28;;;20.50;83.80;;;;;;5988451;23;20169;-88
2023/08/15 01:10:55;;;;;;;5.95;5.35;;;20.50;83.80;;;;;;5974101;23;20241;-87
2023/08/15 01:13:53;;;;;;;5.70;5.10;;;20.50;83.80;;;;;;6020553;23;20158;-90
2023/08/15 01:16:28;;;;;;;6.05;5.45;;;20.50;83.80;;;;;;5960633;23;20162;-87
2023/08/15 01:19:02;;;;;;;7.05;5.70;;;20.50;83.90;;;;;;5998178;23;20161;-89
2023/08/15 01:21:36;;;;;;;6.07;5.47;;;20.50;83.90;;;;;;5969893;23;20191;-88
2023/08/15 01:24:11;;;;;;;5.80;5.20;;;20.50;83.90;;;;;;5937022;24;20479;-88
2023/08/15 01:26:40;;;;;;;6.05;5.53;;;20.50;83.80;;;;;;5942023;24;20151;-87
2023/08/15 01:29:17;;;;;;;7.85;5.10;;;20.50;83.90;;;;;;5941931;24;20252;-87
2023/08/15 01:32:00;;;;;;;6.03;5.05;;;20.50;83.80;;;;;;5966030;24;20159;-87
2023/08/15 01:34:40;;;;;;;6.57;5.47;;;20.50;83.90;;;;;;5949552;23;20167;-90
2023/08/15 01:37:24;;;;;;;5.88;5.28;;;20.50;83.90;;;;;;5992684;23;20158;-87
2023/08/15 01:40:20;;;;;;;5.97;5.38;;;20.50;83.90;;;;;;5992536;23;20158;-88
2023/08/15 01:42:55;;;;;;;6.10;5.50;;;20.50;83.80;;;;;;5993806;23;20187;-89
2023/08/15 01:45:32;;;;;;;5.78;5.18;;;20.50;83.90;;;;;;5987400;23;20583;-87
2023/08/15 01:48:06;;;;;;;5.97;5.38;;;20.50;83.90;;;;;;5942776;24;20162;-87
2023/08/15 01:50:44;;;;;;;5.65;5.10;;;20.50;84.00;;;;;;5918677;24;20151;-88
2023/08/15 01:53:13;;;;;;;6.40;5.40;;;20.50;84.00;;;;;;5909470;24;20164;-89
2023/08/15 01:55:39;;;;;;;6.13;5.40;;;20.40;84.00;;;;;;5972771;23;20170;-89
2023/08/15 01:58:14;;;;;;;6.35;5.72;;;20.40;83.90;;;;;;5992049;23;20293;-88
2023/08/15 02:00:48;;;;;;;6.85;5.55;;;20.50;84.00;;;;;;5923741;23;20162;-88
2023/08/15 02:03:36;;;;;;;6.55;5.63;;;20.50;84.10;;;;;;5964139;24;20270;-88
2023/08/15 02:06:22;;;;;;;5.80;5.20;;;20.40;84.10;;;;;;5942420;23;20165;-88
2023/08/15 02:08:49;;;;;;;5.95;5.22;;;20.40;84.10;;;;;;5992293;23;20165;-89
2023/08/15 02:11:15;;;;;;;5.93;5.32;;;20.40;84.10;;;;;;5922678;23;20223;-89
2023/08/15 02:13:54;;;;;;;5.40;4.90;;;20.40;84.00;;;;;;5968886;23;20163;-87
2023/08/15 02:16:24;;;;;;;6.43;5.20;;;20.40;84.00;;;;;;5941761;23;20158;-89
2023/08/15 02:18:55;;;;;;;7.03;5.40;;;20.40;84.00;;;;;;5992664;23;20726;-88
2023/08/15 02:21:36;;;;;;;6.35;5.53;;;20.40;84.10;;;;;;5991280;23;20193;-88
2023/08/15 02:24:07;;;;;;;6.13;5.47;;;20.40;84.10;;;;;;6002396;23;20269;-89
2023/08/15 02:26:44;;;;;;;6.03;5.35;;;20.40;84.10;;;;;;6001701;23;20181;-89
2023/08/15 02:29:16;;;;;;;5.53;5.03;;;20.40;84.30;;;;;;6003953;23;20169;-89
2023/08/15 02:31:44;;;;;;;5.97;5.28;;;20.40;84.20;;;;;;6002237;23;20244;-89
2023/08/15 02:34:15;;;;;;;5.85;5.25;;;20.40;84.30;;;;;;6041989;23;20161;-89
2023/08/15 02:36:55;;;;;;;6.38;5.50;;;20.40;84.20;;;;;;6025458;23;20158;-88
2023/08/15 02:39:28;;;;;;;7.10;5.43;;;20.40;84.20;;;;;;6019776;23;20154;-90
2023/08/15 02:42:02;;;;;;;5.65;5.15;;;20.40;84.30;;;;;;5975770;23;20207;-89
2023/08/15 02:44:44;;;;;;;6.05;5.45;;;20.40;84.20;;;;;;5968151;23;20750;-90
2023/08/15 02:47:15;;;;;;;5.43;4.93;;;20.40;84.30;;;;;;5971761;23;20266;-89
2023/08/15 02:49:46;;;;;;;6.03;5.43;;;20.30;84.20;;;;;;5958662;24;20152;-88
2023/08/15 02:52:15;;;;;;;5.90;5.30;;;20.40;84.30;;;;;;5958990;24;20187;-88
2023/08/15 02:54:42;;;;;;;5.57;4.97;;;20.30;84.30;;;;;;5936430;24;20222;-89
2023/08/15 02:57:07;;;;;;;6.25;5.05;;;20.30;84.30;;;;;;5935860;24;20163;-90
2023/08/15 02:59:38;;;;;;;5.85;5.25;;;20.30;84.30;;;;;;5936542;24;20966;-89
2023/08/15 03:02:04;;;;;;;5.75;5.15;;;20.30;84.30;;;;;;5959126;24;20247;-90
2023/08/15 03:04:32;;;;;;;5.38;4.88;;;20.30;84.40;;;;;;5963636;24;20158;-91
2023/08/15 03:06:58;;;;;;;5.72;5.22;;;20.30;84.40;;;;;;5963282;24;20159;-91
2023/08/15 03:09:27;;;;;;;5.20;4.70;;;20.40;84.50;;;;;;5962869;24;20151;-88
2023/08/15 03:11:57;;;;;;;5.80;5.20;;;20.30;84.50;;;;;;5963198;24;20148;-90
2023/08/15 03:14:23;;;;;;;5.47;4.95;;;20.30;84.50;;;;;;5943219;23;20565;-88
2023/08/15 03:16:50;;;;;;;5.72;5.15;;;20.30;84.50;;;;;;6009712;23;20621;-90
2023/08/15 03:19:19;;;;;;;5.30;4.80;;;20.30;84.50;;;;;;6048215;23;20141;-89
2023/08/15 03:21:49;;;;;;;6.07;5.47;;;20.30;84.40;;;;;;6037808;23;20186;-88
2023/08/15 03:24:29;;;;;;;5.97;5.25;;;20.30;84.40;;;;;;6063119;23;20251;-89
2023/08/15 03:27:02;;;;;;;5.75;5.25;;;20.30;84.50;;;;;;6090262;23;20211;-90
2023/08/15 03:29:35;;;;;;;6.07;5.30;;;20.30;84.50;;;;;;6086493;23;20230;-88
2023/08/15 03:32:24;;;;;;;5.57;5.07;;;20.30;84.50;;;;;;6056466;23;20166;-89
2023/08/15 03:34:54;;;;;;;6.07;5.47;;;20.40;84.60;;;;;;6116493;23;20156;-89
2023/08/15 03:37:23;;;;;;;6.55;5.50;;;20.30;84.50;;;;;;6105545;23;20187;-89
2023/08/15 03:40:13;;;;;;;5.53;5.00;;;20.30;84.50;;;;;;6076672;23;20411;-89
2023/08/15 03:42:49;;;;;;;5.80;5.20;;;20.30;84.70;;;;;;6077474;23;20195;-90
2023/08/15 03:45:23;;;;;;;5.40;4.90;;;20.30;84.60;;;;;;6033759;23;20148;-89
2023/08/15 03:47:54;;;;;;;5.97;5.22;;;20.30;84.60;;;;;;6083866;23;20155;-88
2023/08/15 03:50:26;;;;;;;5.75;4.70;;;20.30;84.60;;;;;;6058197;23;20542;-88
2023/08/15 03:52:59;;;;;;;5.97;5.28;;;20.30;84.70;;;;;;6059168;23;20151;-88
2023/08/15 03:55:37;;;;;;;5.70;5.10;;;20.30;84.70;;;;;;6052961;23;20313;-89
2023/08/15 03:58:12;;;;;;;5.43;4.93;;;20.30;84.70;;;;;;6078715;23;20642;-90
2023/08/15 04:00:49;;;;;;;6.70;5.40;;;20.30;84.70;;;;;;6054437;23;20215;-89
2023/08/15 04:03:17;;;;;;;5.47;4.93;;;20.30;84.70;;;;;;6095544;23;20610;-89
2023/08/15 04:05:45;;;;;;;5.72;4.72;;;20.30;84.60;;;;;;6082685;23;20236;-88
2023/08/15 04:08:15;;;;;;;5.80;5.20;;;20.30;84.70;;;;;;6082387;23;20156;-88
2023/08/15 04:10:55;;;;;;;5.65;5.07;;;20.20;84.60;;;;;;6096365;23;20162;-90
2023/08/15 04:13:24;;;;;;;6.20;5.60;;;20.30;84.70;;;;;;6137289;23;20273;-90
2023/08/15 04:15:51;;;;;;;5.68;5.07;;;20.30;84.80;;;;;;6112409;23;20255;-89
2023/08/15 04:18:27;;;;;;;5.63;5.03;;;20.20;84.70;;;;;;6136938;23;20190;-89
2023/08/15 04:21:01;;;;;;;6.32;5.53;;;20.30;84.80;;;;;;6112720;23;20694;-89
2023/08/15 04:23:32;;;;;;;5.75;5.18;;;20.20;84.70;;;;;;6111764;23;20171;-88
2023/08/15 04:26:05;;;;;;;5.40;4.88;;;20.30;84.80;;;;;;6138566;23;20609;-88
2023/08/15 04:28:43;;;;;;;5.85;5.18;;;20.30;84.80;;;;;;6054946;23;20149;-89
2023/08/15 04:31:24;;;;;;;5.65;5.05;;;20.20;84.80;;;;;;6077705;23;20216;-89
2023/08/15 04:34:10;;;;;;;5.88;5.28;;;20.30;84.80;;;;;;6078014;23;20170;-89
2023/08/15 04:36:44;;;;;;;5.80;5.20;;;20.30;84.80;;;;;;6102229;23;20152;-91
2023/08/15 04:39:13;;;;;;;5.57;4.97;;;20.20;84.70;;;;;;5975110;23;20249;-89
2023/08/15 04:41:42;;;;;;;5.20;4.70;;;20.30;84.90;;;;;;5937165;24;20187;-89
2023/08/15 04:44:13;;;;;;;5.63;5.03;;;20.20;84.90;;;;;;5936797;24;20509;-88
2023/08/15 04:46:45;;;;;;;5.75;5.10;;;20.30;84.90;;;;;;5890922;24;20211;-90
2023/08/15 04:49:23;;;;;;;6.13;5.40;;;20.20;84.90;;;;;;5891851;24;20163;-88
2023/08/15 04:52:05;;;;;;;6.50;5.35;;;20.30;84.90;;;;;;5960038;24;20156;-88
2023/08/15 04:54:38;;;;;;;5.85;5.20;;;20.20;84.90;;;;;;5904129;24;20160;-91
2023/08/15 04:57:11;;;;;;;5.68;5.13;;;20.20;84.90;;;;;;5881852;24;20165;-88
2023/08/15 04:59:41;;;;;;;5.50;4.85;;;20.20;84.90;;;;;;5933897;24;20156;-89
2023/08/15 05:02:10;;;;;;;6.00;4.93;;;20.30;84.80;;;;;;5931428;24;20184;-90
2023/08/15 05:04:39;;;;;;;5.60;4.97;;;20.20;84.90;;;;;;5908997;24;20161;-88
2023/08/15 05:07:08;;;;;;;6.38;5.40;;;20.20;84.90;;;;;;5894549;24;20241;-90
2023/08/15 05:09:47;;;;;;;5.63;5.10;;;20.20;84.90;;;;;;5878285;24;20169;-90
2023/08/15 05:12:16;;;;;;;5.90;5.30;;;20.20;85.00;;;;;;5896993;24;20169;-88
2023/08/15 05:15:01;;;;;;;6.20;5.15;;;20.20;84.80;;;;;;5876508;24;20166;-90
2023/08/15 05:17:35;;;;;;;5.60;4.97;;;20.20;84.80;;;;;;5803603;24;20162;-90
2023/08/15 05:20:05;;;;;;;5.78;5.28;;;20.20;84.80;;;;;;5876984;24;20270;-89
2023/08/15 05:22:35;;;;;;;5.43;4.90;;;20.20;84.90;;;;;;5873354;24;20664;-89
2023/08/15 05:25:26;;;;;;;5.40;4.78;;;20.20;84.90;;;;;;5880535;24;20222;-89
2023/08/15 05:27:57;;;;;;;5.55;4.88;;;20.20;84.90;;;;;;5879466;24;20153;-90
2023/08/15 05:30:32;;;;;;;6.85;5.15;;;20.30;84.90;;;;;;5866687;24;20242;-89
2023/08/15 05:33:18;;;;;;;5.90;5.20;;;20.20;84.80;;;;;;5833920;24;20222;-89
2023/08/15 05:35:43;;;;;;;5.80;5.05;;;20.20;84.80;;;;;;5828416;24;20161;-90
2023/08/15 05:38:09;;;;;;;5.82;5.22;;;20.30;84.80;;;;;;5874772;24;20523;-91
2023/08/15 05:40:41;;;;;;;5.68;5.07;;;20.20;84.70;;;;;;5856507;24;20162;-90
2023/08/15 05:43:13;;;;;;;6.28;5.15;;;20.30;84.80;;;;;;5858340;24;20197;-89
2023/08/15 05:45:49;;;;;;;5.22;4.72;;;20.30;84.80;;;;;;5863598;24;20196;-89
2023/08/15 05:48:48;;;;;;;5.10;4.50;;;20.30;84.90;;;;;;5919264;24;20168;-90
2023/08/15 05:51:14;;;;;;;5.15;4.65;;;20.30;85.20;;;;;;5906999;24;20184;-90
2023/08/15 05:53:41;;;;;;;5.00;4.43;;;20.30;85.30;;;;;;5931160;23;20158;-89
2023/08/15 05:56:16;;;;;;;4.68;4.20;;;20.30;85.40;;;;;;5965760;23;20205;-89
2023/08/15 05:58:45;;;;;;;5.18;4.55;;;20.40;85.40;;;;;;5932875;24;20163;-89
2023/08/15 06:01:21;;;;;;;5.07;4.57;;;20.40;85.30;;;;;;5894096;24;20161;-88
2023/08/15 06:03:54;;;;;;;4.80;4.25;;;20.40;85.30;;;;;;5836911;24;20176;-88
2023/08/15 06:06:29;;;;;;;4.50;4.10;;;20.40;85.40;;;;;;5835418;24;20357;-90
2023/08/15 06:09:33;;;;;;;4.85;4.22;;;20.40;85.30;;;;;;5878985;24;20592;-89
2023/08/15 06:12:05;;;;;;;5.53;4.50;;;20.30;85.30;;;;;;5946736;24;20230;-89
2023/08/15 06:14:45;;;;;;;4.72;4.22;;;20.40;85.50;;;;;;5866202;24;20159;-88
2023/08/15 06:17:18;;;;;;;4.35;3.95;;;20.40;85.40;;;;;;5911632;24;20175;-90
2023/08/15 06:19:54;;;;;;;5.10;4.40;;;20.40;85.40;;;;;;5934079;24;20215;-90
2023/08/15 06:22:25;;;;;;;5.90;3.97;;;20.40;85.70;;;;;;5830702;24;20196;-90
2023/08/15 06:25:41;;;;;;;4.35;3.95;;;20.40;85.70;;;;;;5810275;24;20241;-89
2023/08/15 06:28:30;;;;;;;5.25;4.07;;;20.40;86.00;;;;;;5792488;24;20798;-89
2023/08/15 06:34:48;;;;;;;4.60;4.20;;;20.40;85.60;;;;;;5824090;24;20314;-89
2023/08/15 06:40:53;;;;;;;4.60;4.20;;;20.50;86.00;;;;;;5731184;24;20166;-90
2023/08/15 06:43:48;;;;;;;;;;;;;;;;;;;;;
2023/08/15 06:46:27;;;;;;;4.97;4.47;;;20.40;85.60;;;;;;5749894;24;20200;-88
2023/08/15 06:49:00;;;;;;;4.55;4.15;;;20.40;85.60;;;;;;5694343;25;20271;-88
2023/08/15 06:51:29;;;;;;;4.47;4.07;;;20.50;85.80;;;;;;5672341;25;20176;-88
2023/08/15 06:53:55;;;;;;;4.55;4.05;;;20.50;85.50;;;;;;5782243;24;20253;-89
2023/08/15 06:56:21;;;;;;;5.03;4.50;;;20.50;85.30;;;;;;5743749;24;20411;-89
2023/08/15 06:58:48;;;;;;;4.60;4.20;;;20.50;85.60;;;;;;5766653;24;20161;-87
2023/08/15 07:01:25;;;;;;;5.20;4.20;;;20.50;85.60;;;;;;5787378;24;20168;-87
2023/08/15 07:03:55;;;;;;;6.82;4.03;;;20.40;85.70;;;;;;5768632;24;20161;-88
2023/08/15 07:06:21;;;;;;;4.85;4.05;;;20.40;86.00;;;;;;5768213;24;20156;-88
2023/08/15 07:08:47;;;;;;;5.25;4.28;;;20.40;86.00;;;;;;5898467;24;20241;-89
2023/08/15 07:11:14;;;;;;;4.15;3.67;;;20.50;86.00;;;;;;5962927;23;20241;-87
2023/08/15 07:13:40;;;;;;;4.30;3.90;;;20.50;86.00;;;;;;6016410;23;20655;-89
2023/08/15 07:16:06;;;;;;;4.50;3.85;;;20.50;85.90;;;;;;5990689;23;20153;-89
2023/08/15 07:18:38;;;;;;;4.53;4.13;;;20.60;86.00;;;;;;6052515;23;20331;-90
2023/08/15 07:21:16;;;;;;;4.50;4.10;;;20.50;86.00;;;;;;6050343;23;20149;-89
2023/08/15 07:23:50;;;;;;;5.78;4.03;;;20.50;86.00;;;;;;6073754;23;20252;-90
2023/08/15 07:26:25;;;;;;;4.32;3.85;;;20.60;86.00;;;;;;6048306;23;20269;-89
2023/08/15 07:28:58;;;;;;;7.18;4.53;;;20.60;85.80;;;;;;6049539;23;20496;-89
2023/08/15 07:31:24;;;;;;;4.50;3.92;;;20.50;85.60;;;;;;6025501;23;20181;-89
2023/08/15 07:33:57;;;;;;;4.93;3.92;;;20.60;85.60;;;;;;6049869;23;20504;-89
2023/08/15 07:36:29;;;;;;;5.55;4.05;;;20.70;85.60;;;;;;6011380;23;20184;-90
2023/08/15 07:38:59;;;;;;;5.10;4.20;;;20.80;85.10;;;;;;6012460;23;20167;-90
2023/08/15 07:41:25;;;;;;;4.70;4.30;;;20.80;84.60;;;;;;6010238;23;20187;-88
2023/08/15 07:43:53;;;;;;;4.30;3.80;;;20.80;84.50;;;;;;6010848;23;20159;-88
2023/08/15 07:46:19;;;;;;;5.55;3.80;;;20.80;84.50;;;;;;5992159;23;20205;-88
2023/08/15 07:48:46;;;;;;;6.07;3.67;;;20.70;84.30;;;;;;5974701;23;20157;-90
2023/08/15 07:51:12;;;;;;;4.50;3.90;;;20.80;84.00;;;;;;6044240;23;20146;-88
2023/08/15 07:53:40;;;;;;;5.40;4.25;;;20.90;83.70;;;;;;6020768;23;20599;-90
2023/08/15 07:56:06;;;;;;;3.97;3.58;;;20.90;83.60;;;;;;5996700;23;20271;-89
2023/08/15 07:58:35;;;;;;;3.88;3.45;;;20.90;83.40;;;;;;6021005;23;20137;-90
2023/08/15 08:01:03;;;;;;;4.10;3.70;;;21.00;83.10;;;;;;5975045;23;20153;-88
2023/08/15 08:03:30;;;;;;;4.57;3.72;;;21.00;83.10;;;;;;5998029;23;20153;-90
2023/08/15 08:05:56;;;;;;;5.47;3.70;;;21.00;83.20;;;;;;6000781;23;20377;-89
2023/08/15 08:08:26;;;;;;;5.03;3.78;;;21.00;83.10;;;;;;6105112;23;20147;-89
2023/08/15 08:10:52;;;;;;;8.55;3.95;;;21.00;83.00;;;;;;6060608;23;20233;-89
2023/08/15 08:13:19;;;;;;;6.30;4.32;;;21.10;83.10;;;;;;6143561;23;20578;-87
2023/08/15 08:15:47;;;;;;;5.82;4.10;;;21.00;83.30;;;;;;6069219;23;20159;-88
2023/08/15 08:18:17;;;;;;;7.78;4.35;;;21.10;83.30;;;;;;6119321;23;20207;-89
2023/08/15 08:20:43;;;;;;;7.10;4.63;;;21.00;83.20;;;;;;6101126;23;20161;-89
2023/08/15 08:23:12;;;;;;;6.03;4.03;;;21.10;83.00;;;;;;6050154;23;20188;-89
2023/08/15 08:25:42;;;;;;;3.90;3.50;;;21.10;82.90;;;;;;6051697;23;20156;-89
2023/08/15 08:28:13;;;;;;;6.95;4.57;;;21.10;82.60;;;;;;6048822;23;20191;-89
2023/08/15 08:30:43;;;;;;;4.57;4.05;;;21.10;82.90;;;;;;6024928;23;20675;-86
2023/08/15 08:33:09;;;;;;;3.85;3.42;;;21.10;82.80;;;;;;6048964;23;20156;-89
2023/08/15 08:35:39;;;;;;;5.38;3.65;;;21.20;82.30;;;;;;6049103;23;20149;-88
2023/08/15 08:38:07;;;;;;;7.30;3.83;;;21.20;82.30;;;;;;6048236;23;20157;-89
2023/08/15 08:40:33;;;;;;;5.50;3.63;;;21.20;82.00;;;;;;6024936;23;20223;-88
2023/08/15 08:42:59;;;;;;;5.63;4.18;;;21.30;81.80;;;;;;6048780;23;20189;-88
2023/08/15 08:45:27;;;;;;;6.75;3.70;;;21.30;82.00;;;;;;6049934;23;20148;-88
2023/08/15 08:47:57;;;;;;;5.82;4.00;;;21.30;81.90;;;;;;6050681;23;20208;-88
2023/08/15 08:50:23;;;;;;;4.00;3.33;;;21.30;82.60;;;;;;6050801;23;20153;-88
2023/08/15 08:52:49;;;;;;;5.05;3.85;;;21.40;81.70;;;;;;6108090;23;20595;-88
2023/08/15 08:55:21;;;;;;;6.97;3.70;;;21.40;81.40;;;;;;6160894;23;20136;-88
2023/08/15 08:57:52;;;;;;;7.28;4.25;;;21.30;81.30;;;;;;6061559;23;20159;-88
2023/08/15 09:00:19;;;;;;;7.18;3.67;;;21.30;81.30;;;;;;6109430;23;20194;-88
2023/08/15 09:02:46;;;;;;;7.22;4.15;;;21.40;81.10;;;;;;6134332;23;20175;-88
2023/08/15 09:05:27;;;;;;;9.07;4.43;;;21.40;81.50;;;;;;6136021;23;20208;-89
2023/08/15 09:08:07;;;;;;;;;;;;;;;;;;;;;
2023/08/15 09:11:04;;;;;;;8.57;4.00;;;21.30;82.00;;;;;;6073699;23;20187;-83
2023/08/15 09:13:47;;;;;;;5.88;3.63;;;21.30;81.60;;;;;;5995889;23;20210;-89
2023/08/15 09:16:26;;;;;;;9.02;3.92;;;21.30;81.40;;;;;;5994592;23;20155;-89
2023/08/15 09:18:55;;;;;;;10.88;4.30;;;21.30;81.50;;;;;;5925677;23;20157;-87
2023/08/15 09:21:23;;;;;;;10.57;3.40;;;21.30;81.50;;;;;;5987894;23;20159;-89
2023/08/15 09:23:53;;;;;;;10.10;3.75;;;21.30;81.30;;;;;;5965606;23;20155;-88
2023/08/15 09:26:50;;;;;;;6.95;4.00;;;21.30;81.20;;;;;;5971603;23;20158;-89
2023/08/15 09:29:21;;;;;;;10.50;4.18;;;21.30;80.80;;;;;;5976910;23;20154;-88
2023/08/15 09:31:50;;;;;;;14.32;4.40;;;21.30;80.80;;;;;;5952154;23;20159;-88
2023/08/15 09:34:20;;;;;;;9.38;3.78;;;21.40;80.80;;;;;;5991764;23;20602;-89
2023/08/15 09:36:46;;;;;;;8.05;3.70;;;21.30;81.60;;;;;;5943100;23;20202;-88
2023/08/15 09:39:13;;;;;;;6.25;3.97;;;21.30;80.30;;;;;;5966033;23;20162;-89
2023/08/15 09:41:40;;;;;;;8.02;3.88;;;21.40;80.10;;;;;;6022060;23;20173;-89
2023/08/15 09:44:10;;;;;;;6.95;3.50;;;21.30;80.10;;;;;;6072971;23;20230;-88
2023/08/15 09:46:36;;;;;;;7.57;3.78;;;21.40;80.30;;;;;;6043034;23;20191;-88
2023/08/15 09:49:02;;;;;;;9.10;3.72;;;21.40;80.40;;;;;;6107503;23;20159;-89
2023/08/15 09:51:38;;;;;;;10.65;3.80;;;21.50;80.10;;;;;;6131654;23;20487;-88
2023/08/15 09:54:05;;;;;;;9.15;3.65;;;21.40;80.10;;;;;;6037635;23;20587;-88
2023/08/15 09:56:30;;;;;;;5.38;3.65;;;21.50;79.80;;;;;;6157403;23;20650;-87
2023/08/15 09:58:56;;;;;;;4.43;3.50;;;21.50;79.90;;;;;;6131769;23;20135;-89
2023/08/15 10:01:23;;;;;;;4.45;3.70;;;21.50;80.00;;;;;;6108802;23;20151;-89
2023/08/15 10:03:53;;;;;;;11.07;3.95;;;21.50;79.60;;;;;;6160848;23;20124;-88
2023/08/15 10:06:19;;;;;;;6.88;3.50;;;21.50;79.80;;;;;;6156553;23;20152;-88
2023/08/15 10:08:53;;;;;;;6.97;3.33;;;21.50;79.70;;;;;;6133688;23;20669;-89
2023/08/15 10:11:19;;;;;;;3.58;2.88;;;21.50;79.60;;;;;;6068901;23;20157;-87
2023/08/15 10:13:45;;;;;;;5.90;3.50;;;21.50;79.50;;;;;;6044927;23;20178;-88
2023/08/15 10:16:12;;;;;;;5.75;3.78;;;21.50;79.40;;;;;;6067831;23;20654;-87
2023/08/15 10:18:39;;;;;;;6.70;3.83;;;21.50;79.30;;;;;;6020716;23;20602;-88
2023/08/15 10:21:04;;;;;;;12.05;3.97;;;21.50;79.70;;;;;;6043948;23;20137;-87
2023/08/15 10:23:34;;;;;;;7.07;3.13;;;21.50;79.40;;;;;;6043445;23;20209;-87
2023/08/15 10:26:00;;;;;;;4.50;3.50;;;21.40;79.10;;;;;;6043838;23;20610;-87
2023/08/15 10:28:33;;;;;;;6.65;3.30;;;21.50;79.00;;;;;;6049062;23;20162;-87
2023/08/15 10:30:59;;;;;;;4.30;3.08;;;21.50;79.00;;;;;;6004805;23;20193;-88
2023/08/15 10:33:29;;;;;;;6.32;3.00;;;21.50;78.80;;;;;;6070227;23;20153;-88
2023/08/15 10:36:12;;;;;;;3.80;3.00;;;21.50;78.50;;;;;;6046259;23;20145;-88
2023/08/15 10:38:40;;;;;;;4.75;3.20;;;21.60;78.10;;;;;;6021931;23;20238;-88
2023/08/15 10:41:15;;;;;;;5.43;3.08;;;21.70;78.80;;;;;;6044801;23;20181;-89
2023/08/15 10:43:55;;;;;;;4.45;2.97;;;21.60;78.20;;;;;;5999720;23;20161;-89
2023/08/15 10:46:25;;;;;;;5.55;3.35;;;21.60;78.70;;;;;;5976595;23;20197;-88
2023/08/15 10:48:54;;;;;;;6.13;3.00;;;21.60;78.70;;;;;;6022881;23;20474;-88
2023/08/15 10:51:23;;;;;;;5.85;3.38;;;21.60;78.70;;;;;;6024094;23;20144;-87
2023/08/15 10:53:50;;;;;;;5.82;3.03;;;21.60;79.00;;;;;;6072234;23;20216;-88
2023/08/15 10:56:17;;;;;;;4.32;3.35;;;21.60;78.70;;;;;;6086624;23;20230;-89
2023/08/15 10:58:44;;;;;;;5.05;3.28;;;21.50;78.50;;;;;;6133685;23;20140;-89
2023/08/15 11:01:16;;;;;;;7.03;3.30;;;21.60;78.50;;;;;;6109073;23;20144;-89
2023/08/15 11:03:43;;;;;;;4.13;3.10;;;21.70;78.50;;;;;;6060987;23;20542;-90
2023/08/15 11:06:11;;;;;;;4.40;3.03;;;21.70;78.50;;;;;;6110830;23;20150;-90
2023/08/15 11:08:50;;;;;;;4.15;3.20;;;21.70;78.30;;;;;;6138993;23;20124;-89
2023/08/15 11:11:16;;;;;;;4.53;3.10;;;21.70;78.50;;;;;;6139995;23;20139;-88
2023/08/15 11:13:47;;;;;;;3.40;2.90;;;21.70;78.50;;;;;;6116945;23;20143;-88
2023/08/15 11:16:20;;;;;;;4.25;3.35;;;21.70;78.50;;;;;;6041581;23;20748;-88
2023/08/15 11:18:55;;;;;;;4.22;2.78;;;21.70;78.50;;;;;;6089391;23;20158;-87
2023/08/15 11:21:27;;;;;;;5.25;3.10;;;21.70;78.50;;;;;;6071940;23;20157;-86
2023/08/15 11:23:57;;;;;;;4.85;2.97;;;21.70;78.40;;;;;;6117590;23;20165;-89
2023/08/15 11:26:25;;;;;;;4.55;2.95;;;21.80;78.50;;;;;;6066989;23;20155;-89
2023/08/15 11:28:52;;;;;;;3.78;3.00;;;21.70;78.50;;;;;;6065225;23;20206;-87
2023/08/15 11:31:42;;;;;;;3.83;3.28;;;21.70;78.50;;;;;;6041200;23;20176;-88
2023/08/15 11:34:16;;;;;;;3.38;3.08;;;21.80;78.50;;;;;;6066778;23;20151;-89
2023/08/15 11:36:46;;;;;;;3.78;2.97;;;21.80;78.60;;;;;;6134071;23;20507;-89
2023/08/15 11:39:12;;;;;;;3.55;2.80;;;21.80;78.50;;;;;;6022826;23;20149;-90
2023/08/15 11:41:51;;;;;;;4.55;3.08;;;21.80;78.50;;;;;;6047941;23;20656;-88
2023/08/15 11:44:21;;;;;;;5.65;3.53;;;21.80;78.50;;;;;;6023426;23;20157;-88
2023/08/15 11:46:49;;;;;;;4.97;3.47;;;21.70;78.60;;;;;;6053763;23;20192;-89
2023/08/15 11:49:17;;;;;;;4.70;2.90;;;21.80;78.70;;;;;;6051605;23;20156;-90
2023/08/15 11:51:42;;;;;;;4.18;3.00;;;21.80;78.80;;;;;;6075058;23;20203;-88
2023/08/15 11:54:08;;;;;;;3.47;3.15;;;21.80;78.80;;;;;;6075391;23;20227;-87
2023/08/15 11:56:49;;;;;;;4.00;2.85;;;21.80;78.80;;;;;;6074444;23;20244;-88
2023/08/15 11:59:18;;;;;;;3.22;2.80;;;21.80;79.00;;;;;;6078035;23;20235;-90
2023/08/15 12:01:44;;;;;;;8.77;3.58;;;21.80;79.00;;;;;;6075904;23;20173;-87
2023/08/15 12:04:23;;;;;;;3.67;3.15;;;21.80;79.00;;;;;;6100637;23;20148;-88
2023/08/15 12:06:54;;;;;;;4.50;2.90;;;21.80;78.90;;;;;;6027623;23;20216;-89
2023/08/15 12:09:28;;;;;;;3.28;2.97;;;21.70;79.00;;;;;;6064115;23;20157;-88
2023/08/15 12:12:19;;;;;;;3.25;2.95;;;21.80;79.20;;;;;;6162096;23;20131;-87
2023/08/15 12:14:45;;;;;;;4.68;3.10;;;21.80;79.20;;;;;;6160462;23;20136;-89
2023/08/15 12:17:16;;;;;;;4.30;3.28;;;21.80;79.10;;;;;;6160197;23;20447;-88
2023/08/15 12:19:45;;;;;;;3.47;3.17;;;21.80;79.00;;;;;;6060179;23;20166;-89
2023/08/15 12:22:17;;;;;;;4.80;3.30;;;21.80;79.00;;;;;;6159568;23;20670;-89
2023/08/15 12:24:47;;;;;;;5.38;3.10;;;21.80;79.30;;;;;;6137576;23;20127;-89
2023/08/15 12:27:18;;;;;;;3.70;3.20;;;21.80;79.30;;;;;;6062868;23;20155;-88
2023/08/15 12:29:47;;;;;;;3.58;3.28;;;21.70;79.20;;;;;;6110974;23;20140;-88
2023/08/15 12:32:19;;;;;;;6.53;3.40;;;21.80;79.50;;;;;;6133084;23;20486;-88
2023/08/15 12:34:46;;;;;;;4.55;3.30;;;21.80;79.40;;;;;;6157066;23;20183;-87
2023/08/15 12:37:32;;;;;;;5.13;3.10;;;21.70;79.30;;;;;;6132808;23;20226;-90
2023/08/15 12:40:01;;;;;;;4.32;2.95;;;21.80;79.30;;;;;;6071316;23;20157;-89
2023/08/15 12:42:40;;;;;;;3.40;3.10;;;21.80;79.30;;;;;;5984795;24;20195;-90
2023/08/15 12:45:10;;;;;;;5.47;3.15;;;21.80;79.40;;;;;;5899085;24;20293;-90
2023/08/15 12:47:36;;;;;;;3.58;3.28;;;21.80;79.80;;;;;;5893061;24;20284;-88
2023/08/15 12:50:03;;;;;;;3.10;2.80;;;21.80;79.80;;;;;;5962657;24;20566;-89
2023/08/15 12:52:34;;;;;;;3.72;3.13;;;21.80;80.00;;;;;;5939053;24;20164;-90
2023/08/15 12:55:04;;;;;;;3.22;2.92;;;21.80;80.10;;;;;;5916675;24;20164;-88
2023/08/15 12:57:30;;;;;;;3.35;3.03;;;21.80;80.10;;;;;;5934460;24;20174;-88
2023/08/15 13:00:00;;;;;;;4.65;3.10;;;21.80;80.10;;;;;;5957446;24;20474;-87
2023/08/15 13:02:30;;;;;;;4.57;3.17;;;21.80;80.10;;;;;;5913088;24;20192;-89
2023/08/15 13:05:05;;;;;;;4.35;3.60;;;21.80;80.10;;;;;;5913815;24;20260;-88
2023/08/15 13:07:32;;;;;;;4.53;3.38;;;21.80;80.30;;;;;;5877124;24;20656;-89
2023/08/15 13:10:34;;;;;;;3.25;2.95;;;21.80;80.30;;;;;;5887728;24;20158;-91
2023/08/15 13:13:04;;;;;;;3.53;3.20;;;21.80;80.30;;;;;;5923916;24;20165;-86
2023/08/15 13:15:33;;;;;;;3.90;3.00;;;21.80;80.60;;;;;;5948992;24;20245;-89
2023/08/15 13:18:03;;;;;;;3.42;2.88;;;21.80;80.60;;;;;;5972428;24;20253;-88
2023/08/15 13:20:32;;;;;;;3.78;3.25;;;21.80;80.40;;;;;;6002369;23;20533;-87
2023/08/15 13:23:04;;;;;;;4.53;3.00;;;21.80;80.60;;;;;;6053511;23;20177;-87